createdAt,value
2019-05-18T00:00:54.119Z,15.30
2019-05-18T00:03:02.014Z,15.29
2019-05-18T00:05:10.344Z,15.30
2019-05-18T00:07:18.136Z,15.30
2019-05-18T00:09:26.035Z,15.33
2019-05-18T00:11:34.325Z,15.37
2019-05-18T00:13:42.279Z,15.39
2019-05-18T00:15:51.308Z,15.40
2019-05-18T00:17:59.231Z,15.42
2019-05-18T00:20:11.105Z,15.44
2019-05-18T00:22:18.986Z,15.44
2019-05-18T00:24:26.903Z,15.45
2019-05-18T00:26:34.789Z,15.45
2019-05-18T00:28:43.814Z,15.46
2019-05-18T00:30:52.046Z,15.44
2019-05-18T00:32:59.985Z,15.41
2019-05-18T00:35:09.705Z,15.39
2019-05-18T00:37:19.074Z,15.38
2019-05-18T00:39:27.137Z,15.31
2019-05-18T00:41:36.128Z,15.34
2019-05-18T00:43:44.038Z,15.36
2019-05-18T00:45:52.027Z,15.30
2019-05-18T00:48:00.559Z,15.33
2019-05-18T00:50:09.076Z,15.35
2019-05-18T00:52:16.931Z,15.34
2019-05-18T00:54:24.821Z,15.37
2019-05-18T00:56:32.744Z,15.39
2019-05-18T00:58:40.702Z,15.41
2019-05-18T01:00:48.591Z,15.40
2019-05-18T01:02:57.022Z,15.44
2019-05-18T01:05:06.233Z,15.43
2019-05-18T01:07:14.092Z,15.46
2019-05-18T01:09:22.033Z,15.46
2019-05-18T01:11:30.087Z,15.46
2019-05-18T01:13:38.108Z,15.46
2019-05-18T01:15:46.028Z,15.45
2019-05-18T01:17:57.394Z,15.47
2019-05-18T01:20:03.742Z,15.48
2019-05-18T01:22:12.699Z,15.49
2019-05-18T01:24:20.686Z,15.48
2019-05-18T01:26:28.572Z,15.45
2019-05-18T01:28:36.603Z,15.43
2019-05-18T01:30:46.375Z,15.42
2019-05-18T01:32:54.365Z,15.38
2019-05-18T01:35:02.307Z,15.32
2019-05-18T01:37:10.327Z,15.28
2019-05-18T01:39:18.344Z,15.26
2019-05-18T01:41:26.378Z,15.24
2019-05-18T01:43:34.270Z,15.26
2019-05-18T01:45:42.159Z,15.27
2019-05-18T01:47:50.085Z,15.29
2019-05-18T01:49:58.084Z,15.29
2019-05-18T01:52:06.066Z,15.28
2019-05-18T01:54:15.666Z,15.24
2019-05-18T01:56:23.883Z,15.23
2019-05-18T01:58:33.877Z,15.20
2019-05-18T02:00:41.821Z,15.22
2019-05-18T02:02:51.338Z,15.19
2019-05-18T02:04:59.237Z,15.19
2019-05-18T02:07:07.228Z,15.17
2019-05-18T02:09:15.162Z,15.16
2019-05-18T02:11:23.224Z,15.18
2019-05-18T02:13:31.212Z,15.20
2019-05-18T02:15:39.104Z,15.15
2019-05-18T02:17:47.062Z,15.18
2019-05-18T02:19:54.996Z,15.18
2019-05-18T02:22:02.955Z,15.17
2019-05-18T02:24:10.980Z,15.21
2019-05-18T02:26:18.945Z,15.19
2019-05-18T02:28:28.241Z,15.17
2019-05-18T02:30:36.474Z,15.18
2019-05-18T02:32:44.412Z,15.20
2019-05-18T02:34:52.302Z,15.24
2019-05-18T02:37:00.263Z,15.22
2019-05-18T02:39:09.592Z,15.23
2019-05-18T02:41:18.043Z,15.24
2019-05-18T02:43:25.929Z,15.26
2019-05-18T02:45:34.908Z,15.27
2019-05-18T02:47:42.806Z,15.28
2019-05-18T02:49:50.705Z,15.27
2019-05-18T02:51:58.714Z,15.25
2019-05-18T02:54:06.661Z,15.24
2019-05-18T02:56:14.558Z,15.25
2019-05-18T02:58:22.475Z,15.26
2019-05-18T03:00:31.268Z,15.27
2019-05-18T03:02:39.160Z,15.27
2019-05-18T03:04:47.231Z,15.28
2019-05-18T03:06:56.020Z,15.30
2019-05-18T03:09:05.755Z,15.30
2019-05-18T03:11:13.645Z,15.31
2019-05-18T03:13:22.033Z,15.32
2019-05-18T03:15:30.160Z,15.31
2019-05-18T03:17:38.202Z,15.34
2019-05-18T03:19:46.157Z,15.33
2019-05-18T03:21:54.143Z,15.33
2019-05-18T03:24:02.142Z,15.33
2019-05-18T03:26:10.030Z,15.30
2019-05-18T03:28:17.927Z,15.31
2019-05-18T03:30:25.909Z,15.34
2019-05-18T03:32:33.817Z,15.38
2019-05-18T03:34:41.706Z,15.40
2019-05-18T03:36:49.642Z,15.45
2019-05-18T03:38:58.006Z,15.48
2019-05-18T03:41:06.076Z,15.48
2019-05-18T03:43:13.990Z,15.48
2019-05-18T03:45:21.957Z,15.48
2019-05-18T03:47:29.913Z,15.48
2019-05-18T03:49:37.924Z,15.44
2019-05-18T03:51:45.989Z,15.43
2019-05-18T03:53:54.083Z,15.40
2019-05-18T03:56:02.200Z,15.40
2019-05-18T03:58:10.183Z,15.41
2019-05-18T04:00:19.653Z,15.41
2019-05-18T04:02:28.194Z,15.42
2019-05-18T04:04:36.081Z,15.46
2019-05-18T04:06:43.972Z,15.50
2019-05-18T04:08:51.994Z,15.54
2019-05-18T04:10:59.945Z,15.62
2019-05-18T04:13:08.894Z,15.71
2019-05-18T04:15:17.053Z,15.78
2019-05-18T04:17:25.048Z,15.85
2019-05-18T04:19:45.810Z,15.95
2019-05-18T04:21:43.823Z,16.06
2019-05-18T04:23:51.712Z,16.15
2019-05-18T04:25:59.602Z,16.25
2019-05-18T04:28:07.620Z,16.39
2019-05-18T04:30:15.961Z,16.48
2019-05-18T04:32:23.917Z,16.59
2019-05-18T04:34:31.833Z,16.65
2019-05-18T04:36:39.785Z,16.74
2019-05-18T04:38:47.588Z,16.80
2019-05-18T04:40:55.511Z,16.87
2019-05-18T04:43:03.406Z,16.89
2019-05-18T04:45:11.530Z,17.00
2019-05-18T04:47:19.571Z,17.07
2019-05-18T04:49:27.655Z,17.13
2019-05-18T04:51:35.646Z,17.17
2019-05-18T04:53:43.577Z,17.23
2019-05-18T04:55:51.471Z,17.24
2019-05-18T04:58:00.834Z,17.26
2019-05-18T05:00:10.288Z,17.30
2019-05-18T05:02:18.572Z,17.37
2019-05-18T05:04:27.267Z,17.45
2019-05-18T05:06:35.688Z,17.53
2019-05-18T05:08:44.156Z,17.55
2019-05-18T05:10:52.547Z,17.59
2019-05-18T05:13:01.515Z,17.63
2019-05-18T05:15:10.155Z,17.66
2019-05-18T05:17:18.534Z,17.63
2019-05-18T05:19:26.452Z,17.69
2019-05-18T05:21:36.350Z,17.73
2019-05-18T05:23:44.615Z,17.76
2019-05-18T05:25:52.937Z,17.86
2019-05-18T05:28:01.396Z,17.94
2019-05-18T05:30:10.197Z,18.03
2019-05-18T05:32:18.197Z,18.14
2019-05-18T05:34:26.102Z,18.22
2019-05-18T05:36:34.376Z,18.31
2019-05-18T05:38:42.490Z,18.35
2019-05-18T05:40:50.954Z,18.38
2019-05-18T05:42:58.967Z,18.42
2019-05-18T05:45:07.875Z,18.46
2019-05-18T05:47:16.031Z,18.50
2019-05-18T05:49:23.924Z,18.57
2019-05-18T05:51:31.935Z,18.63
2019-05-18T05:53:39.927Z,18.69
2019-05-18T05:55:47.825Z,18.76
2019-05-18T05:57:55.954Z,18.83
2019-05-18T06:00:06.234Z,18.89
2019-05-18T06:02:14.526Z,18.98
2019-05-18T06:04:22.442Z,19.08
2019-05-18T06:06:31.398Z,19.15
2019-05-18T06:08:39.793Z,19.22
2019-05-18T06:10:48.429Z,19.32
2019-05-18T06:12:56.844Z,19.43
2019-05-18T06:15:07.153Z,19.52
2019-05-18T06:17:15.580Z,19.63
2019-05-18T06:19:23.910Z,19.72
2019-05-18T06:21:32.789Z,19.82
2019-05-18T06:23:41.212Z,19.89
2019-05-18T06:25:49.603Z,19.95
2019-05-18T06:27:57.897Z,19.96
2019-05-18T06:30:08.441Z,19.99
2019-05-18T06:32:16.335Z,20.05
2019-05-18T06:34:24.398Z,20.10
2019-05-18T06:36:32.617Z,20.18
2019-05-18T06:38:41.542Z,20.25
2019-05-18T06:40:49.478Z,20.33
2019-05-18T06:42:57.798Z,20.41
2019-05-18T06:45:10.138Z,20.50
2019-05-18T06:47:18.088Z,20.61
2019-05-18T06:49:26.100Z,20.73
2019-05-18T06:51:33.976Z,20.81
2019-05-18T06:53:42.354Z,20.86
2019-05-18T06:55:52.103Z,20.97
2019-05-18T06:58:01.099Z,21.09
2019-05-18T07:00:11.426Z,21.20
2019-05-18T07:02:19.326Z,21.22
2019-05-18T07:04:27.275Z,21.28
2019-05-18T07:06:36.308Z,21.36
2019-05-18T07:08:44.695Z,21.34
2019-05-18T07:10:53.558Z,21.49
2019-05-18T07:13:01.956Z,21.56
2019-05-18T07:15:10.758Z,21.58
2019-05-18T07:17:19.081Z,21.71
2019-05-18T07:19:27.237Z,21.74
2019-05-18T07:21:35.547Z,21.81
2019-05-18T07:23:44.007Z,21.88
2019-05-18T07:25:52.438Z,21.89
2019-05-18T07:28:00.546Z,21.96
2019-05-18T07:30:21.697Z,22.06
2019-05-18T07:32:29.981Z,22.15
2019-05-18T07:34:37.990Z,22.18
2019-05-18T07:36:47.432Z,22.15
2019-05-18T07:38:55.410Z,22.20
2019-05-18T07:41:03.626Z,22.22
2019-05-18T07:43:12.011Z,22.27
2019-05-18T07:45:20.781Z,22.34
2019-05-18T07:47:28.938Z,22.40
2019-05-18T07:49:36.918Z,22.40
2019-05-18T07:51:44.806Z,22.47
2019-05-18T07:53:52.710Z,22.50
2019-05-18T07:56:00.752Z,22.56
2019-05-18T07:58:09.352Z,22.53
2019-05-18T08:00:17.596Z,22.57
2019-05-18T08:02:25.484Z,22.57
2019-05-18T08:04:33.535Z,22.64
2019-05-18T08:06:41.461Z,22.66
2019-05-18T08:08:50.892Z,22.65
2019-05-18T08:10:58.890Z,22.70
2019-05-18T08:13:08.342Z,22.64
2019-05-18T08:15:16.976Z,22.72
2019-05-18T08:17:25.260Z,22.80
2019-05-18T08:19:34.240Z,22.86
2019-05-18T08:21:52.627Z,22.86
2019-05-18T08:23:52.397Z,22.95
2019-05-18T08:26:00.275Z,23.02
2019-05-18T08:28:09.276Z,23.06
2019-05-18T08:30:17.220Z,23.05
2019-05-18T08:32:25.141Z,23.06
2019-05-18T08:34:33.141Z,22.90
2019-05-18T08:36:42.465Z,22.95
2019-05-18T08:38:50.679Z,23.04
2019-05-18T08:40:58.858Z,23.07
2019-05-18T08:43:07.242Z,23.07
2019-05-18T08:45:17.047Z,23.06
2019-05-18T08:47:25.909Z,23.10
2019-05-18T08:49:33.979Z,23.25
2019-05-18T08:51:42.875Z,23.28
2019-05-18T08:53:51.248Z,23.34
2019-05-18T08:56:00.107Z,23.42
2019-05-18T08:58:08.646Z,23.52
2019-05-18T09:00:17.200Z,23.63
2019-05-18T09:02:25.484Z,23.71
2019-05-18T09:04:33.843Z,23.73
2019-05-18T09:06:43.117Z,23.69
2019-05-18T09:08:51.099Z,23.72
2019-05-18T09:10:59.178Z,23.75
2019-05-18T09:13:07.064Z,23.74
2019-05-18T09:15:15.972Z,23.81
2019-05-18T09:17:23.958Z,23.83
2019-05-18T09:19:32.327Z,23.81
2019-05-18T09:21:40.510Z,23.85
2019-05-18T09:23:51.808Z,23.85
2019-05-18T09:26:00.110Z,23.83
2019-05-18T09:28:08.399Z,23.86
2019-05-18T09:30:17.212Z,23.75
2019-05-18T09:32:25.091Z,23.91
2019-05-18T09:34:32.983Z,23.95
2019-05-18T09:36:42.484Z,24.00
2019-05-18T09:38:51.359Z,24.07
2019-05-18T09:40:59.367Z,24.14
2019-05-18T09:43:07.410Z,24.16
2019-05-18T09:45:17.827Z,24.22
2019-05-18T09:47:25.603Z,24.20
2019-05-18T09:49:33.777Z,24.11
2019-05-18T09:51:43.367Z,24.20
2019-05-18T09:53:52.239Z,24.22
2019-05-18T09:56:00.300Z,24.20
2019-05-18T09:58:08.710Z,24.17
2019-05-18T10:00:18.722Z,24.11
2019-05-18T10:02:27.001Z,24.17
2019-05-18T10:08:49.210Z,24.20
2019-05-18T10:10:57.191Z,24.27
2019-05-18T10:13:05.218Z,24.32
2019-05-18T10:15:13.802Z,24.36
2019-05-18T10:17:22.614Z,24.34
2019-05-18T10:19:30.549Z,24.36
2019-05-18T10:21:38.708Z,24.40
2019-05-18T10:23:46.765Z,24.41
2019-05-18T10:25:55.024Z,24.44
2019-05-18T10:28:03.454Z,24.41
2019-05-18T10:30:12.404Z,24.38
2019-05-18T10:32:20.785Z,24.14
2019-05-18T10:34:29.720Z,24.24
2019-05-18T10:36:37.708Z,24.24
2019-05-18T10:38:45.681Z,24.29
2019-05-18T10:40:53.587Z,24.31
2019-05-18T10:43:02.042Z,24.33
2019-05-18T10:45:11.232Z,24.33
2019-05-18T10:47:19.505Z,24.30
2019-05-18T10:49:27.744Z,24.33
2019-05-18T10:51:35.618Z,24.26
2019-05-18T10:53:43.762Z,24.34
2019-05-18T10:55:51.739Z,24.41
2019-05-18T10:57:59.792Z,24.43
2019-05-18T11:00:12.348Z,24.39
2019-05-18T11:02:20.411Z,24.48
2019-05-18T11:04:28.386Z,24.45
2019-05-18T11:06:39.169Z,24.48
2019-05-18T11:08:47.208Z,24.50
2019-05-18T11:10:56.163Z,24.55
2019-05-18T11:13:04.343Z,24.63
2019-05-18T11:15:13.989Z,24.68
2019-05-18T11:17:22.405Z,24.66
2019-05-18T11:19:30.337Z,24.65
2019-05-18T11:21:38.218Z,24.66
2019-05-18T11:23:48.129Z,24.69
2019-05-18T11:25:56.174Z,24.69
2019-05-18T11:28:04.441Z,24.64
2019-05-18T11:30:14.723Z,24.73
2019-05-18T11:32:23.003Z,24.81
2019-05-18T11:34:30.890Z,24.88
2019-05-18T11:36:38.766Z,24.83
2019-05-18T11:38:46.679Z,24.99
2019-05-18T11:40:54.730Z,24.95
2019-05-18T11:43:04.398Z,25.03
2019-05-18T11:45:16.834Z,25.08
2019-05-18T11:47:27.901Z,25.08
2019-05-18T11:49:37.102Z,25.13
2019-05-18T11:51:45.600Z,25.26
2019-05-18T11:53:58.411Z,25.28
2019-05-18T11:56:03.273Z,25.38
2019-05-18T11:58:11.345Z,25.41
2019-05-18T12:00:19.826Z,25.44
2019-05-18T12:02:27.710Z,25.41
2019-05-18T12:04:36.603Z,25.42
2019-05-18T12:06:44.577Z,25.31
2019-05-18T12:08:52.451Z,25.29
2019-05-18T12:11:00.435Z,25.18
2019-05-18T12:13:08.780Z,25.19
2019-05-18T12:15:19.252Z,25.31
2019-05-18T12:17:27.153Z,25.37
2019-05-18T12:19:36.300Z,25.37
2019-05-18T12:21:44.284Z,25.33
2019-05-18T12:23:52.294Z,25.41
2019-05-18T12:26:01.169Z,25.48
2019-05-18T12:28:09.433Z,25.59
2019-05-18T12:30:20.342Z,25.65
2019-05-18T12:32:30.067Z,25.69
2019-05-18T12:34:38.364Z,25.66
2019-05-18T12:36:46.778Z,25.71
2019-05-18T12:38:56.747Z,25.75
2019-05-18T12:41:07.517Z,25.74
2019-05-18T12:43:15.445Z,25.56
2019-05-18T12:45:24.670Z,25.59
2019-05-18T12:47:32.619Z,25.43
2019-05-18T12:49:40.700Z,25.49
2019-05-18T12:51:49.652Z,25.54
2019-05-18T12:53:57.782Z,25.51
2019-05-18T12:56:05.838Z,25.16
2019-05-18T12:58:15.093Z,25.19
2019-05-18T13:00:24.482Z,25.20
2019-05-18T13:02:32.710Z,25.24
2019-05-18T13:04:41.939Z,25.33
2019-05-18T13:06:50.360Z,25.33
2019-05-18T13:08:58.440Z,25.36
2019-05-18T13:11:07.115Z,25.33
2019-05-18T13:13:15.322Z,25.45
2019-05-18T13:15:23.919Z,25.50
2019-05-18T13:17:33.209Z,25.56
2019-05-18T13:19:41.159Z,25.61
2019-05-18T13:21:49.197Z,25.64
2019-05-18T13:23:57.179Z,25.63
2019-05-18T13:26:05.526Z,25.60
2019-05-18T13:28:13.499Z,25.63
2019-05-18T13:30:23.968Z,25.66
2019-05-18T13:32:31.829Z,25.77
2019-05-18T13:34:39.745Z,25.83
2019-05-18T13:36:48.100Z,25.92
2019-05-18T13:38:55.993Z,26.03
2019-05-18T13:41:04.538Z,26.05
2019-05-18T13:43:12.514Z,26.12
2019-05-18T13:45:21.029Z,26.19
2019-05-18T13:47:32.040Z,26.22
2019-05-18T13:49:40.322Z,26.26
2019-05-18T13:51:49.194Z,26.29
2019-05-18T13:53:57.138Z,26.33
2019-05-18T13:56:05.431Z,26.34
2019-05-18T13:58:13.414Z,26.35
2019-05-18T14:00:23.562Z,26.39
2019-05-18T14:02:31.545Z,26.39
2019-05-18T14:04:39.615Z,26.37
2019-05-18T14:06:47.536Z,26.42
2019-05-18T14:08:55.500Z,26.37
2019-05-18T14:11:03.971Z,26.41
2019-05-18T14:13:12.368Z,26.46
2019-05-18T14:15:23.025Z,26.55
2019-05-18T14:17:30.212Z,26.61
2019-05-18T14:19:38.124Z,26.64
2019-05-18T14:21:46.235Z,26.67
2019-05-18T14:23:55.492Z,26.71
2019-05-18T14:26:03.476Z,26.81
2019-05-18T14:28:11.429Z,26.92
2019-05-18T14:30:20.657Z,27.01
2019-05-18T14:32:28.567Z,27.10
2019-05-18T14:34:36.518Z,27.17
2019-05-18T14:36:44.557Z,27.16
2019-05-18T14:38:56.713Z,27.16
2019-05-18T14:41:02.644Z,27.11
2019-05-18T14:43:10.667Z,27.09
2019-05-18T14:45:19.466Z,27.06
2019-05-18T14:47:27.682Z,27.03
2019-05-18T14:49:35.999Z,26.98
2019-05-18T14:51:44.248Z,26.97
2019-05-18T14:53:52.632Z,26.93
2019-05-18T14:56:00.808Z,26.89
2019-05-18T14:58:09.618Z,26.78
2019-05-18T15:00:20.686Z,26.71
2019-05-18T15:02:28.659Z,26.64
2019-05-18T15:04:37.592Z,26.56
2019-05-18T15:06:45.484Z,26.46
2019-05-18T15:08:54.368Z,26.43
2019-05-18T15:11:02.809Z,26.36
2019-05-18T15:13:10.846Z,26.30
2019-05-18T15:15:19.046Z,26.05
2019-05-18T15:17:26.973Z,25.98
2019-05-18T15:19:35.129Z,25.92
2019-05-18T15:21:43.124Z,25.84
2019-05-18T15:23:51.069Z,25.75
2019-05-18T15:25:58.939Z,25.71
2019-05-18T15:28:07.101Z,25.57
2019-05-18T15:30:17.209Z,25.55
2019-05-18T15:32:25.629Z,25.56
2019-05-18T15:34:33.592Z,25.53
2019-05-18T15:36:41.610Z,25.47
2019-05-18T15:38:50.179Z,25.42
2019-05-18T15:40:58.436Z,25.40
2019-05-18T15:43:06.460Z,25.45
2019-05-18T15:45:14.722Z,25.48
2019-05-18T15:47:22.853Z,25.48
2019-05-18T15:49:30.763Z,25.46
2019-05-18T15:51:38.654Z,25.52
2019-05-18T15:53:46.644Z,25.54
2019-05-18T15:56:05.236Z,25.54
2019-05-18T15:58:04.314Z,25.62
2019-05-18T16:00:12.829Z,25.67
2019-05-18T16:02:21.286Z,25.72
2019-05-18T16:04:29.490Z,25.71
2019-05-18T16:06:38.528Z,25.76
2019-05-18T16:08:47.423Z,25.76
2019-05-18T16:10:57.361Z,25.77
2019-05-18T16:13:05.366Z,25.77
2019-05-18T16:15:14.737Z,25.72
2019-05-18T16:17:38.096Z,25.74
2019-05-18T16:19:32.274Z,25.73
2019-05-18T16:21:40.353Z,25.68
2019-05-18T16:23:48.342Z,25.65
2019-05-18T16:25:56.222Z,25.64
2019-05-18T16:28:04.206Z,25.62
2019-05-18T16:30:12.754Z,25.60
2019-05-18T16:32:21.049Z,25.55
2019-05-18T16:34:28.987Z,25.46
2019-05-18T16:36:36.886Z,25.43
2019-05-18T16:38:44.885Z,25.39
2019-05-18T16:40:52.896Z,25.38
2019-05-18T16:43:01.767Z,25.35
2019-05-18T16:45:10.730Z,25.33
2019-05-18T16:47:19.902Z,25.31
2019-05-18T16:49:27.886Z,25.27
2019-05-18T16:51:35.880Z,25.24
2019-05-18T16:53:48.141Z,25.19
2019-05-18T16:55:54.687Z,25.17
2019-05-18T16:58:02.902Z,25.13
2019-05-18T17:00:16.231Z,25.14
2019-05-18T17:02:31.674Z,25.11
2019-05-18T17:04:34.484Z,25.12
2019-05-18T17:06:42.498Z,25.13
2019-05-18T17:08:50.481Z,25.03
2019-05-18T17:10:58.478Z,25.02
2019-05-18T17:13:06.870Z,25.02
2019-05-18T17:15:16.876Z,25.01
2019-05-18T17:17:25.133Z,24.98
2019-05-18T17:19:33.051Z,24.98
2019-05-18T17:21:41.052Z,24.96
2019-05-18T17:23:49.025Z,24.89
2019-05-18T17:25:56.967Z,24.86
2019-05-18T17:28:04.997Z,24.82
2019-05-18T17:30:13.367Z,24.79
2019-05-18T17:32:21.289Z,24.72
2019-05-18T17:34:29.249Z,24.71
2019-05-18T17:36:38.213Z,24.68
2019-05-18T17:38:46.269Z,24.64
2019-05-18T17:40:54.496Z,24.63
2019-05-18T17:43:02.499Z,24.57
2019-05-18T17:45:11.900Z,24.53
2019-05-18T17:47:19.803Z,24.52
2019-05-18T17:49:28.072Z,24.51
2019-05-18T17:51:36.387Z,24.48
2019-05-18T17:53:44.824Z,24.45
2019-05-18T17:55:52.820Z,24.44
2019-05-18T17:58:00.835Z,24.46
2019-05-18T18:00:11.173Z,24.43
2019-05-18T18:02:19.063Z,24.45
2019-05-18T18:04:27.095Z,24.48
2019-05-18T18:06:35.460Z,24.46
2019-05-18T18:08:43.736Z,24.40
2019-05-18T18:10:51.723Z,24.26
2019-05-18T18:12:59.926Z,24.18
2019-05-18T18:15:09.298Z,24.10
2019-05-18T18:17:17.905Z,23.99
2019-05-18T18:19:25.893Z,23.84
2019-05-18T18:21:33.806Z,23.72
2019-05-18T18:23:41.719Z,23.61
2019-05-18T18:25:49.678Z,23.44
2019-05-18T18:27:57.612Z,23.14
2019-05-18T18:30:12.104Z,22.96
2019-05-18T18:32:20.471Z,22.92
2019-05-18T18:34:28.705Z,22.86
2019-05-18T18:36:36.636Z,22.79
2019-05-18T18:38:45.072Z,22.70
2019-05-18T18:40:54.316Z,22.59
2019-05-18T18:43:02.333Z,22.56
2019-05-18T18:45:11.283Z,22.35
2019-05-18T18:47:19.236Z,22.19
2019-05-18T18:49:27.290Z,22.02
2019-05-18T18:51:35.332Z,21.94
2019-05-18T18:53:44.192Z,21.90
2019-05-18T18:55:53.107Z,21.83
2019-05-18T18:58:02.491Z,21.77
2019-05-18T19:00:12.789Z,21.70
2019-05-18T19:02:20.900Z,21.58
2019-05-18T19:04:28.894Z,21.46
2019-05-18T19:06:36.954Z,21.32
2019-05-18T19:08:45.116Z,21.18
2019-05-18T19:10:53.073Z,21.06
2019-05-18T19:13:00.984Z,20.92
2019-05-18T19:15:10.613Z,20.78
2019-05-18T19:17:18.755Z,20.65
2019-05-18T19:19:26.958Z,20.50
2019-05-18T19:21:35.093Z,20.40
2019-05-18T19:23:43.077Z,20.32
2019-05-18T19:25:51.959Z,20.23
2019-05-18T19:28:00.098Z,20.14
2019-05-18T19:30:10.334Z,20.06
2019-05-18T19:32:18.280Z,19.97
2019-05-18T19:34:26.404Z,19.93
2019-05-18T19:36:34.322Z,19.91
2019-05-18T19:38:42.677Z,19.89
2019-05-18T19:40:50.711Z,19.78
2019-05-18T19:42:59.650Z,19.79
2019-05-18T19:45:11.441Z,19.69
2019-05-18T19:47:19.392Z,19.68
2019-05-18T19:49:27.393Z,19.73
2019-05-18T19:51:36.430Z,19.73
2019-05-18T19:53:44.479Z,19.72
2019-05-18T19:55:52.375Z,19.72
2019-05-18T19:58:08.515Z,19.75
2019-05-18T20:00:12.997Z,19.76
2019-05-18T20:02:20.957Z,19.80
2019-05-18T20:04:29.140Z,19.73
2019-05-18T20:06:37.460Z,19.73
2019-05-18T20:08:45.553Z,19.78
2019-05-18T20:10:53.952Z,19.77
2019-05-18T20:13:02.049Z,19.71
2019-05-18T20:15:10.788Z,19.72
2019-05-18T20:17:18.709Z,19.70
2019-05-18T20:19:38.553Z,19.73
2019-05-18T20:21:37.402Z,19.70
2019-05-18T20:23:45.306Z,19.68
2019-05-18T20:25:53.248Z,19.70
2019-05-18T20:28:01.235Z,19.70
2019-05-18T20:30:11.827Z,19.68
2019-05-18T20:32:19.833Z,19.70
2019-05-18T20:34:27.889Z,19.70
2019-05-18T20:36:36.054Z,19.69
2019-05-18T20:38:44.576Z,19.67
2019-05-18T20:40:52.559Z,19.69
2019-05-18T20:43:00.562Z,19.64
2019-05-18T20:45:09.590Z,19.67
2019-05-18T20:47:17.560Z,19.67
2019-05-18T20:49:25.548Z,19.68
2019-05-18T20:51:33.490Z,19.68
2019-05-18T20:53:41.469Z,19.65
2019-05-18T20:55:49.534Z,19.63
2019-05-18T20:57:57.544Z,19.61
2019-05-18T21:00:06.550Z,19.54
2019-05-18T21:02:16.148Z,19.52
2019-05-18T21:04:24.171Z,19.47
2019-05-18T21:06:32.070Z,19.41
2019-05-18T21:08:40.192Z,19.35
2019-05-18T21:10:49.211Z,19.32
2019-05-18T21:12:57.108Z,19.29
2019-05-18T21:15:08.236Z,19.27
2019-05-18T21:17:16.704Z,19.28
2019-05-18T21:19:24.699Z,19.26
2019-05-18T21:21:32.599Z,19.22
2019-05-18T21:23:40.584Z,19.17
2019-05-18T21:25:48.478Z,19.09
2019-05-18T21:27:56.770Z,19.06
2019-05-18T21:30:06.693Z,19.04
2019-05-18T21:32:14.595Z,19.00
2019-05-18T21:34:22.482Z,18.99
2019-05-18T21:36:30.399Z,19.01
2019-05-18T21:38:38.292Z,18.99
2019-05-18T21:40:46.328Z,19.00
2019-05-18T21:42:55.270Z,19.01
2019-05-18T21:45:03.442Z,19.01
2019-05-18T21:47:11.741Z,19.00
2019-05-18T21:49:19.889Z,18.98
2019-05-18T21:51:27.947Z,18.98
2019-05-18T21:53:35.936Z,18.96
2019-05-18T21:55:44.191Z,18.97
2019-05-18T21:57:52.330Z,18.97
2019-05-18T22:00:00.736Z,18.89
2019-05-18T22:02:09.867Z,18.91
2019-05-18T22:04:18.060Z,18.86
2019-05-18T22:06:26.063Z,18.78
2019-05-18T22:08:33.994Z,18.70
2019-05-18T22:10:41.882Z,18.61
2019-05-18T22:12:49.883Z,18.54
2019-05-18T22:14:58.032Z,18.46
2019-05-18T22:17:06.419Z,18.42
2019-05-18T22:19:14.313Z,18.38
2019-05-18T22:21:23.257Z,18.36
2019-05-18T22:23:31.256Z,18.36
2019-05-18T22:25:39.167Z,18.38
2019-05-18T22:27:47.357Z,18.40
2019-05-18T22:29:56.721Z,18.39
2019-05-18T22:32:04.677Z,18.40
2019-05-18T22:34:13.004Z,18.39
2019-05-18T22:36:21.028Z,18.40
2019-05-18T22:38:29.384Z,18.39
2019-05-18T22:40:37.454Z,18.38
2019-05-18T22:42:45.823Z,18.36
2019-05-18T22:44:53.713Z,18.35
2019-05-18T22:47:01.746Z,18.33
2019-05-18T22:49:09.722Z,18.29
2019-05-18T22:51:19.342Z,18.27
2019-05-18T22:53:27.368Z,18.24
2019-05-18T22:55:35.766Z,18.22
2019-05-18T22:57:44.049Z,18.17
2019-05-18T22:59:53.012Z,18.15
2019-05-18T23:02:00.977Z,18.15
2019-05-18T23:04:09.479Z,18.15
2019-05-18T23:06:17.423Z,18.14
2019-05-18T23:08:25.455Z,18.16
2019-05-18T23:10:33.444Z,18.13
2019-05-18T23:12:42.472Z,18.14
2019-05-18T23:14:50.397Z,18.16
2019-05-18T23:16:58.287Z,18.17
2019-05-18T23:19:06.707Z,18.19
2019-05-18T23:21:14.600Z,18.20
2019-05-18T23:23:22.686Z,18.22
2019-05-18T23:25:30.712Z,18.22
2019-05-18T23:27:38.598Z,18.24
2019-05-18T23:29:46.492Z,18.22
2019-05-18T23:31:54.497Z,18.20
2019-05-18T23:34:02.465Z,18.18
2019-05-18T23:36:10.821Z,18.17
2019-05-18T23:38:18.841Z,18.13
2019-05-18T23:40:26.820Z,18.14
2019-05-18T23:42:34.778Z,18.14
2019-05-18T23:44:42.903Z,18.12
2019-05-18T23:46:51.071Z,18.13
2019-05-18T23:49:10.073Z,18.17
2019-05-18T23:51:09.633Z,18.17
2019-05-18T23:53:17.528Z,18.15
2019-05-18T23:55:25.656Z,18.15
2019-05-18T23:57:34.762Z,18.17
2019-05-18T23:59:42.637Z,18.17
